Accueil
METAR-TAF:

METAR-TAF

Aéroports :

Craig, Colorado, États-Unis

latitude: 40-29-36N, longitude: 107-31-25W, altitude: 1888 m

Observation

Le bulletin a été fait il y a 17 minutes, à 22:53 UTC
Vent 5 kt de est/nord-est
Température 7°C
Humidité 87%
Pression 1006 hPa
Visibilité: 16.1 km
Nuages fragmentés à une hauteur de 4500 ft
Ciel couvert à une hauteur de 9000 ft

METAR: KCAG 202253Z AUTO 06005KT 10SM BKN045 OVC090 07/05 A2971 RMK AO2 SLP044 T00720050

Heure: 16:10 (23:10 UTC)


TAF: absent

Observations et prévisions météorologiques de plus de 4000 aéroports (messages METAR et TAF).

Les stations disponibles sont représentées par des disques jaunes et rouges sur la carte.

Passer la souris dessus pour voir le nom de la station.

Cliquer dessus pour voir les observations et prévisions météorologiques.

Pour changer de carte: cliquez sur les boutons verts avec une croix noire pour zoomer, sur le bouton vert avec un tiret pour effectuer un zoom arrière, ou sur les flèches vertes pour les cartes adjacentes.


METAR-TAF: